createdAt,value
2024-03-20T00:00:48.814Z,96337.00
2024-03-20T00:01:48.928Z,96336.00
2024-03-20T00:02:49.038Z,96334.00
2024-03-20T00:03:49.158Z,96334.00
2024-03-20T00:04:49.252Z,96330.00
2024-03-20T00:05:49.384Z,96331.00
2024-03-20T00:06:49.477Z,96333.00
2024-03-20T00:07:49.619Z,96332.00
2024-03-20T00:08:49.715Z,96332.00
2024-03-20T00:09:49.827Z,96337.00
2024-03-20T00:10:49.932Z,96335.00
2024-03-20T00:11:50.055Z,96336.00
2024-03-20T00:12:50.162Z,96335.00
2024-03-20T00:13:50.296Z,96336.00
2024-03-20T00:14:50.400Z,96338.00
2024-03-20T00:15:50.523Z,96336.00
2024-03-20T00:16:50.626Z,96335.00
2024-03-20T00:17:50.749Z,96335.00
2024-03-20T00:18:50.870Z,96333.00
2024-03-20T00:19:50.987Z,96329.00
2024-03-20T00:20:51.104Z,96331.00
2024-03-20T00:21:51.217Z,96331.00
2024-03-20T00:22:51.337Z,96326.00
2024-03-20T00:23:51.451Z,96327.00
2024-03-20T00:24:51.561Z,96328.00
2024-03-20T00:25:51.683Z,96328.00
2024-03-20T00:26:54.326Z,96330.00
2024-03-20T00:27:51.802Z,96331.00
2024-03-20T00:28:51.794Z,96330.00
2024-03-20T00:29:51.801Z,96331.00
2024-03-20T00:30:51.810Z,96331.00
2024-03-20T00:31:51.817Z,96331.00
2024-03-20T00:32:51.823Z,96333.00
2024-03-20T00:33:51.828Z,96331.00
2024-03-20T00:34:51.805Z,96329.00
2024-03-20T00:35:51.820Z,96329.00
2024-03-20T00:36:52.344Z,96324.00
2024-03-20T00:37:51.914Z,96326.00
2024-03-20T00:38:51.819Z,96324.00
2024-03-20T00:39:51.821Z,96321.00
2024-03-20T00:40:51.912Z,96319.00
2024-03-20T00:41:51.834Z,96318.00
2024-03-20T00:42:51.834Z,96317.00
2024-03-20T00:43:51.831Z,96318.00
2024-03-20T00:44:51.835Z,96318.00
2024-03-20T00:45:51.859Z,96318.00
2024-03-20T00:46:51.840Z,96318.00
2024-03-20T00:47:51.860Z,96317.00
2024-03-20T00:48:51.847Z,96318.00
2024-03-20T00:49:51.839Z,96317.00
2024-03-20T00:50:51.834Z,96314.00
2024-03-20T00:51:51.832Z,96315.00
2024-03-20T00:52:53.091Z,96313.00
2024-03-20T00:53:51.842Z,96315.00
2024-03-20T00:54:51.838Z,96315.00
2024-03-20T00:55:51.854Z,96315.00
2024-03-20T00:56:51.832Z,96316.00
2024-03-20T00:57:51.838Z,96315.00
2024-03-20T00:58:51.934Z,96316.00
2024-03-20T00:59:52.064Z,96315.00
2024-03-20T01:00:52.180Z,96315.00
2024-03-20T01:01:52.297Z,96314.00
2024-03-20T01:02:52.400Z,96312.00
2024-03-20T01:03:52.546Z,96311.00
2024-03-20T01:04:52.658Z,96312.00
2024-03-20T01:05:52.793Z,96311.00
2024-03-20T01:06:52.904Z,96312.00
2024-03-20T01:07:53.005Z,96309.00
2024-03-20T01:08:53.132Z,96308.00
2024-03-20T01:09:53.249Z,96307.00
2024-03-20T01:10:53.385Z,96308.00
2024-03-20T01:11:53.501Z,96309.00
2024-03-20T01:12:53.609Z,96310.00
2024-03-20T01:13:53.749Z,96310.00
2024-03-20T01:14:53.853Z,96310.00
2024-03-20T01:15:53.976Z,96309.00
2024-03-20T01:16:54.084Z,96309.00
2024-03-20T01:17:54.217Z,96308.00
2024-03-20T01:18:54.335Z,96307.00
2024-03-20T01:19:54.452Z,96307.00
2024-03-20T01:20:54.575Z,96306.00
2024-03-20T01:21:54.699Z,96305.00
2024-03-20T01:22:54.828Z,96306.00
2024-03-20T01:23:54.946Z,96306.00
2024-03-20T01:24:55.076Z,96306.00
2024-03-20T01:25:55.196Z,96305.00
2024-03-20T01:26:55.303Z,96305.00
2024-03-20T01:27:55.454Z,96304.00
2024-03-20T01:28:55.555Z,96305.00
2024-03-20T01:29:55.682Z,96308.00
2024-03-20T01:30:55.814Z,96307.00
2024-03-20T01:31:55.933Z,96309.00
2024-03-20T01:32:56.085Z,96307.00
2024-03-20T01:33:56.173Z,96307.00
2024-03-20T01:34:56.292Z,96306.00
2024-03-20T01:35:56.430Z,96308.00
2024-03-20T01:36:56.543Z,96307.00
2024-03-20T01:37:56.673Z,96304.00
2024-03-20T01:38:56.784Z,96304.00
2024-03-20T01:39:56.932Z,96302.00
2024-03-20T01:40:57.050Z,96303.00
2024-03-20T01:41:57.172Z,96300.00
2024-03-20T01:42:57.287Z,96302.00
2024-03-20T01:43:57.417Z,96301.00
2024-03-20T01:44:57.543Z,96301.00
2024-03-20T01:45:57.690Z,96302.00
2024-03-20T01:46:57.790Z,96301.00
2024-03-20T01:47:57.914Z,96303.00
2024-03-20T01:48:58.044Z,96301.00
2024-03-20T01:49:58.160Z,96304.00
2024-03-20T01:50:58.331Z,96305.00
2024-03-20T01:51:58.408Z,96304.00
2024-03-20T01:52:58.518Z,96303.00
2024-03-20T01:53:58.648Z,96303.00
2024-03-20T01:54:58.765Z,96304.00
2024-03-20T01:55:59.393Z,96304.00
2024-03-20T01:56:58.926Z,96303.00
2024-03-20T01:57:58.936Z,96303.00
2024-03-20T01:58:58.950Z,96300.00
2024-03-20T01:59:58.977Z,96300.00
2024-03-20T02:00:58.999Z,96300.00
2024-03-20T02:01:59.031Z,96300.00
2024-03-20T02:02:59.057Z,96299.00
2024-03-20T02:03:59.185Z,96299.00
2024-03-20T02:04:59.289Z,96296.00
2024-03-20T02:05:59.424Z,96298.00
2024-03-20T02:06:59.546Z,96296.00
2024-03-20T02:07:59.684Z,96298.00
2024-03-20T02:08:59.783Z,96298.00
2024-03-20T02:09:59.906Z,96297.00
2024-03-20T02:11:00.012Z,96298.00
2024-03-20T02:12:00.186Z,96296.00
2024-03-20T02:13:00.263Z,96295.00
2024-03-20T02:14:00.403Z,96294.00
2024-03-20T02:15:00.514Z,96294.00
2024-03-20T02:16:00.657Z,96294.00
2024-03-20T02:17:00.766Z,96294.00
2024-03-20T02:18:00.903Z,96295.00
2024-03-20T02:19:01.018Z,96295.00
2024-03-20T02:20:01.142Z,96298.00
2024-03-20T02:21:01.256Z,96298.00
2024-03-20T02:22:01.474Z,96299.00
2024-03-20T02:23:01.534Z,96299.00
2024-03-20T02:24:01.640Z,96301.00
2024-03-20T02:25:01.795Z,96301.00
2024-03-20T02:26:01.877Z,96301.00
2024-03-20T02:27:01.995Z,96302.00
2024-03-20T02:28:02.114Z,96305.00
2024-03-20T02:29:02.232Z,96306.00
2024-03-20T02:30:02.372Z,96308.00
2024-03-20T02:31:02.492Z,96310.00
2024-03-20T02:32:02.622Z,96307.00
2024-03-20T02:33:02.731Z,96308.00
2024-03-20T02:34:02.864Z,96309.00
2024-03-20T02:35:02.990Z,96307.00
2024-03-20T02:36:03.119Z,96304.00
2024-03-20T02:37:03.233Z,96305.00
2024-03-20T02:38:03.366Z,96307.00
2024-03-20T02:39:03.483Z,96307.00
2024-03-20T02:40:03.617Z,96306.00
2024-03-20T02:41:03.736Z,96309.00
2024-03-20T02:42:03.861Z,96308.00
2024-03-20T02:43:03.985Z,96309.00
2024-03-20T02:44:04.092Z,96314.00
2024-03-20T02:45:04.204Z,96312.00
2024-03-20T02:46:04.339Z,96313.00
2024-03-20T02:47:04.466Z,96312.00
2024-03-20T02:48:04.593Z,96311.00
2024-03-20T02:49:04.714Z,96311.00
2024-03-20T02:50:04.850Z,96310.00
2024-03-20T02:51:04.967Z,96309.00
2024-03-20T02:52:05.104Z,96309.00
2024-03-20T02:53:05.213Z,96306.00
2024-03-20T02:54:05.369Z,96307.00
2024-03-20T02:55:05.462Z,96306.00
2024-03-20T02:56:05.592Z,96308.00
2024-03-20T02:57:05.704Z,96309.00
2024-03-20T02:58:05.837Z,96311.00
2024-03-20T02:59:05.973Z,96315.00
2024-03-20T03:00:06.096Z,96318.00
2024-03-20T03:01:06.231Z,96319.00
2024-03-20T03:02:06.342Z,96319.00
2024-03-20T03:03:06.456Z,96319.00
2024-03-20T03:04:06.590Z,96319.00
2024-03-20T03:05:06.726Z,96320.00
2024-03-20T03:06:06.848Z,96321.00
2024-03-20T03:07:06.963Z,96319.00
2024-03-20T03:08:07.105Z,96320.00
2024-03-20T03:09:07.213Z,96319.00
2024-03-20T03:10:07.349Z,96320.00
2024-03-20T03:11:07.469Z,96319.00
2024-03-20T03:12:07.582Z,96318.00
2024-03-20T03:13:07.704Z,96318.00
2024-03-20T03:14:07.837Z,96319.00
2024-03-20T03:15:08.393Z,96318.00
2024-03-20T03:16:08.100Z,96320.00
2024-03-20T03:17:08.214Z,96320.00
2024-03-20T03:18:08.334Z,96322.00
2024-03-20T03:19:08.446Z,96324.00
2024-03-20T03:20:08.589Z,96324.00
2024-03-20T03:21:08.698Z,96324.00
2024-03-20T03:22:08.830Z,96325.00
2024-03-20T03:23:08.953Z,96323.00
2024-03-20T03:24:09.080Z,96322.00
2024-03-20T03:25:09.275Z,96323.00
2024-03-20T03:26:09.358Z,96324.00
2024-03-20T03:27:09.455Z,96323.00
2024-03-20T03:28:09.598Z,96322.00
2024-03-20T03:29:09.700Z,96322.00
2024-03-20T03:30:09.821Z,96322.00
2024-03-20T03:31:17.217Z,96322.00
2024-03-20T03:32:17.219Z,96321.00
2024-03-20T03:33:17.213Z,96320.00
2024-03-20T03:34:17.813Z,96320.00
2024-03-20T03:35:17.214Z,96322.00
2024-03-20T03:36:17.224Z,96322.00
2024-03-20T03:37:17.215Z,96324.00
2024-03-20T03:38:17.200Z,96327.00
2024-03-20T03:39:17.211Z,96328.00
2024-03-20T03:40:17.207Z,96326.00
2024-03-20T03:41:17.399Z,96328.00
2024-03-20T03:42:17.215Z,96327.00
2024-03-20T03:43:17.274Z,96330.00
2024-03-20T03:44:17.284Z,96328.00
2024-03-20T03:45:17.269Z,96326.00
2024-03-20T03:46:17.269Z,96325.00
2024-03-20T03:47:17.287Z,96325.00
2024-03-20T03:48:17.286Z,96323.00
2024-03-20T03:49:17.285Z,96321.00
2024-03-20T03:50:17.299Z,96322.00
2024-03-20T03:51:17.284Z,96323.00
2024-03-20T03:52:17.285Z,96324.00
2024-03-20T03:53:17.298Z,96327.00
2024-03-20T03:54:17.314Z,96327.00
2024-03-20T03:55:17.310Z,96328.00
2024-03-20T03:56:17.420Z,96329.00
2024-03-20T03:57:17.655Z,96330.00
2024-03-20T03:58:17.720Z,96330.00
2024-03-20T03:59:17.788Z,96326.00
2024-03-20T04:00:17.891Z,96327.00
2024-03-20T04:01:18.040Z,96328.00
2024-03-20T04:02:18.131Z,96326.00
2024-03-20T04:03:18.275Z,96326.00
2024-03-20T04:04:18.392Z,96327.00
2024-03-20T04:05:18.520Z,96327.00
2024-03-20T04:06:18.638Z,96327.00
2024-03-20T04:07:18.764Z,96329.00
2024-03-20T04:08:18.887Z,96329.00
2024-03-20T04:09:19.071Z,96329.00
2024-03-20T04:10:19.135Z,96329.00
2024-03-20T04:11:19.268Z,96329.00
2024-03-20T04:12:19.378Z,96329.00
2024-03-20T04:13:19.511Z,96331.00
2024-03-20T04:14:19.628Z,96330.00
2024-03-20T04:15:19.741Z,96331.00
2024-03-20T04:16:19.853Z,96330.00
2024-03-20T04:17:20.003Z,96332.00
2024-03-20T04:18:20.086Z,96330.00
2024-03-20T04:19:20.224Z,96332.00
2024-03-20T04:20:20.326Z,96333.00
2024-03-20T04:21:20.466Z,96333.00
2024-03-20T04:22:20.571Z,96333.00
2024-03-20T04:23:20.687Z,96333.00
2024-03-20T04:24:20.821Z,96331.00
2024-03-20T04:25:20.942Z,96332.00
2024-03-20T04:26:21.082Z,96332.00
2024-03-20T04:27:21.196Z,96333.00
2024-03-20T04:28:21.323Z,96331.00
2024-03-20T04:29:21.439Z,96332.00
2024-03-20T04:30:21.551Z,96329.00
2024-03-20T04:31:21.687Z,96333.00
2024-03-20T04:32:21.789Z,96333.00
2024-03-20T04:33:21.918Z,96334.00
2024-03-20T04:34:22.035Z,96334.00
2024-03-20T04:35:22.167Z,96336.00
2024-03-20T04:36:22.278Z,96336.00
2024-03-20T04:37:22.415Z,96336.00
2024-03-20T04:38:22.518Z,96336.00
2024-03-20T04:39:22.643Z,96335.00
2024-03-20T04:40:22.757Z,96335.00
2024-03-20T04:41:22.910Z,96332.00
2024-03-20T04:42:23.007Z,96332.00
2024-03-20T04:43:23.129Z,96329.00
2024-03-20T04:44:23.235Z,96326.00
2024-03-20T04:45:23.359Z,96325.00
2024-03-20T04:46:23.472Z,96328.00
2024-03-20T04:47:25.775Z,96327.00
2024-03-20T04:48:23.599Z,96329.00
2024-03-20T04:49:23.634Z,96330.00
2024-03-20T04:50:23.636Z,96332.00
2024-03-20T04:51:23.647Z,96335.00
2024-03-20T04:52:23.636Z,96332.00
2024-03-20T04:53:23.652Z,96334.00
2024-03-20T04:54:25.402Z,96334.00
2024-03-20T04:55:23.650Z,96336.00
2024-03-20T04:56:23.645Z,96336.00
2024-03-20T04:57:23.648Z,96337.00
2024-03-20T04:58:23.670Z,96336.00
2024-03-20T04:59:23.661Z,96335.00
2024-03-20T05:00:23.647Z,96336.00
2024-03-20T05:01:23.660Z,96338.00
2024-03-20T05:02:23.647Z,96339.00
2024-03-20T05:03:23.672Z,96339.00
2024-03-20T05:04:23.666Z,96338.00
2024-03-20T05:05:23.658Z,96338.00
2024-03-20T05:06:23.730Z,96339.00
2024-03-20T05:07:23.853Z,96340.00
2024-03-20T05:08:23.963Z,96339.00
2024-03-20T05:09:24.082Z,96340.00
2024-03-20T05:10:24.192Z,96339.00
2024-03-20T05:11:24.295Z,96342.00
2024-03-20T05:12:24.396Z,96342.00
2024-03-20T05:13:24.521Z,96345.00
2024-03-20T05:14:24.612Z,96348.00
2024-03-20T05:15:24.746Z,96349.00
2024-03-20T05:16:24.845Z,96351.00
2024-03-20T05:17:24.951Z,96351.00
2024-03-20T05:18:25.058Z,96356.00
2024-03-20T05:19:25.177Z,96354.00
2024-03-20T05:20:25.283Z,96356.00
2024-03-20T05:21:25.404Z,96358.00
2024-03-20T05:22:25.520Z,96357.00
2024-03-20T05:23:25.653Z,96358.00
2024-03-20T05:24:25.777Z,96358.00
2024-03-20T05:25:25.887Z,96360.00
2024-03-20T05:26:26.000Z,96362.00
2024-03-20T05:27:26.110Z,96362.00
2024-03-20T05:28:26.225Z,96362.00
2024-03-20T05:29:27.265Z,96363.00
2024-03-20T05:30:26.474Z,96364.00
2024-03-20T05:31:26.595Z,96361.00
2024-03-20T05:32:26.720Z,96361.00
2024-03-20T05:33:26.838Z,96362.00
2024-03-20T05:34:26.951Z,96362.00
2024-03-20T05:35:27.037Z,96364.00
2024-03-20T05:36:27.148Z,96365.00
2024-03-20T05:37:27.288Z,96366.00
2024-03-20T05:38:27.393Z,96368.00
2024-03-20T05:39:27.502Z,96369.00
2024-03-20T05:40:27.602Z,96369.00
2024-03-20T05:41:27.739Z,96371.00
2024-03-20T05:42:27.833Z,96373.00
2024-03-20T05:43:27.959Z,96377.00
2024-03-20T05:44:28.067Z,96377.00
2024-03-20T05:45:28.267Z,96381.00
2024-03-20T05:46:28.319Z,96381.00
2024-03-20T05:47:28.431Z,96382.00
2024-03-20T05:48:28.546Z,96384.00
2024-03-20T05:49:28.663Z,96386.00
2024-03-20T05:50:28.780Z,96386.00
2024-03-20T05:51:28.887Z,96387.00
2024-03-20T05:52:29.001Z,96390.00
2024-03-20T05:53:29.104Z,96389.00
2024-03-20T05:54:29.201Z,96391.00
2024-03-20T05:55:29.309Z,96387.00
2024-03-20T05:56:29.422Z,96390.00
2024-03-20T05:57:29.616Z,96389.00
2024-03-20T05:58:29.664Z,96390.00
2024-03-20T05:59:29.753Z,96389.00
2024-03-20T06:00:29.905Z,96392.00
2024-03-20T06:01:29.963Z,96391.00
2024-03-20T06:02:30.068Z,96392.00
2024-03-20T06:03:30.194Z,96394.00
2024-03-20T06:04:30.306Z,96394.00
2024-03-20T06:05:30.442Z,96393.00
2024-03-20T06:06:30.562Z,96393.00
2024-03-20T06:07:30.681Z,96396.00
2024-03-20T06:09:30.813Z,96400.00
2024-03-20T06:10:30.814Z,96400.00
2024-03-20T06:11:30.814Z,96403.00
2024-03-20T06:12:30.810Z,96400.00
2024-03-20T06:13:30.801Z,96400.00
2024-03-20T06:14:30.820Z,96402.00
2024-03-20T06:15:30.807Z,96403.00
2024-03-20T06:16:30.822Z,96402.00
2024-03-20T06:17:30.803Z,96404.00
2024-03-20T06:18:30.806Z,96404.00
2024-03-20T06:19:30.809Z,96405.00
2024-03-20T06:20:30.822Z,96407.00
2024-03-20T06:21:30.861Z,96407.00
2024-03-20T06:22:30.853Z,96409.00
2024-03-20T06:23:30.822Z,96409.00
2024-03-20T06:24:30.837Z,96408.00
2024-03-20T06:25:30.830Z,96408.00
2024-03-20T06:26:30.831Z,96407.00
2024-03-20T06:27:30.836Z,96408.00
2024-03-20T06:28:30.829Z,96409.00
2024-03-20T06:29:30.819Z,96409.00
2024-03-20T06:30:30.877Z,96412.00
2024-03-20T06:31:30.827Z,96412.00
2024-03-20T06:32:30.829Z,96411.00
2024-03-20T06:33:30.909Z,96408.00
2024-03-20T06:34:33.525Z,96409.00
2024-03-20T06:35:30.848Z,96414.00
2024-03-20T06:36:30.872Z,96411.00
2024-03-20T06:37:30.834Z,96414.00
2024-03-20T06:38:30.854Z,96417.00
2024-03-20T06:39:30.843Z,96420.00
2024-03-20T06:40:30.857Z,96420.00
2024-03-20T06:41:30.929Z,96419.00
2024-03-20T06:42:30.955Z,96418.00
2024-03-20T06:43:30.864Z,96417.00
2024-03-20T06:44:30.863Z,96419.00
2024-03-20T06:45:30.905Z,96418.00
2024-03-20T06:46:30.873Z,96419.00
2024-03-20T06:47:30.887Z,96422.00
2024-03-20T06:48:30.880Z,96424.00
2024-03-20T06:49:30.874Z,96424.00
2024-03-20T06:50:30.874Z,96425.00
2024-03-20T06:51:30.883Z,96426.00
2024-03-20T06:52:30.875Z,96427.00
2024-03-20T06:53:30.873Z,96425.00
2024-03-20T06:54:30.939Z,96425.00
2024-03-20T06:55:30.874Z,96423.00
2024-03-20T06:56:30.887Z,96422.00
2024-03-20T06:57:30.892Z,96422.00
2024-03-20T06:58:30.890Z,96420.00
2024-03-20T06:59:30.880Z,96420.00
2024-03-20T07:00:30.919Z,96418.00
2024-03-20T07:01:30.890Z,96420.00
2024-03-20T07:02:30.910Z,96423.00
2024-03-20T07:03:30.904Z,96420.00
2024-03-20T07:04:30.895Z,96420.00
2024-03-20T07:05:30.874Z,96419.00
2024-03-20T07:06:30.904Z,96417.00
2024-03-20T07:07:30.898Z,96417.00
2024-03-20T07:08:30.900Z,96416.00
2024-03-20T07:09:30.956Z,96417.00
2024-03-20T07:10:33.223Z,96417.00
2024-03-20T07:11:30.988Z,96417.00
2024-03-20T07:12:31.021Z,96419.00
2024-03-20T07:13:30.981Z,96420.00
2024-03-20T07:14:30.982Z,96420.00
2024-03-20T07:15:31.001Z,96422.00
2024-03-20T07:16:30.991Z,96422.00
2024-03-20T07:17:30.977Z,96422.00
2024-03-20T07:18:31.000Z,96422.00
2024-03-20T07:19:30.982Z,96421.00
2024-03-20T07:20:31.001Z,96420.00
2024-03-20T07:21:30.996Z,96416.00
2024-03-20T07:22:30.998Z,96416.00
2024-03-20T07:23:31.013Z,96414.00
2024-03-20T07:24:31.010Z,96417.00
2024-03-20T07:25:33.630Z,96415.00
2024-03-20T07:26:31.006Z,96415.00
2024-03-20T07:27:31.008Z,96415.00
2024-03-20T07:28:31.011Z,96416.00
2024-03-20T07:29:31.030Z,96417.00
2024-03-20T07:30:30.993Z,96416.00
2024-03-20T07:31:31.011Z,96416.00
2024-03-20T07:32:31.044Z,96416.00
2024-03-20T07:33:31.017Z,96413.00
2024-03-20T07:34:31.003Z,96414.00
2024-03-20T07:35:31.013Z,96414.00
2024-03-20T07:36:31.000Z,96412.00
2024-03-20T07:37:31.018Z,96410.00
2024-03-20T07:38:31.018Z,96410.00
2024-03-20T07:39:31.011Z,96410.00
2024-03-20T07:40:31.017Z,96408.00
2024-03-20T07:41:31.016Z,96408.00
2024-03-20T07:42:31.052Z,96410.00
2024-03-20T07:43:31.017Z,96410.00
2024-03-20T07:44:31.035Z,96409.00
2024-03-20T07:45:31.093Z,96409.00
2024-03-20T07:46:31.025Z,96410.00
2024-03-20T07:47:31.027Z,96411.00
2024-03-20T07:48:31.024Z,96410.00
2024-03-20T07:49:31.024Z,96412.00
2024-03-20T07:50:31.046Z,96410.00
2024-03-20T07:51:31.036Z,96412.00
2024-03-20T07:52:31.041Z,96411.00
2024-03-20T07:53:31.044Z,96410.00
2024-03-20T07:54:31.043Z,96415.00
2024-03-20T07:55:31.263Z,96419.00
2024-03-20T07:56:31.147Z,96413.00
2024-03-20T07:57:31.061Z,96412.00
2024-03-20T07:58:31.201Z,96410.00
2024-03-20T07:59:31.475Z,96408.00
2024-03-20T08:00:31.093Z,96407.00
2024-03-20T08:01:31.083Z,96408.00
2024-03-20T08:02:31.200Z,96406.00
2024-03-20T08:03:31.137Z,96406.00
2024-03-20T08:04:31.140Z,96404.00
2024-03-20T08:05:31.052Z,96402.00
2024-03-20T08:06:31.103Z,96400.00
2024-03-20T08:07:31.041Z,96401.00
2024-03-20T08:08:31.043Z,96402.00
2024-03-20T08:09:38.782Z,96401.00
2024-03-20T08:10:38.783Z,96400.00
2024-03-20T08:11:38.843Z,96398.00
2024-03-20T08:12:38.805Z,96396.00
2024-03-20T08:13:38.777Z,96395.00
2024-03-20T08:14:38.866Z,96395.00
2024-03-20T08:15:38.836Z,96394.00
2024-03-20T08:16:40.920Z,96395.00
2024-03-20T08:17:38.861Z,96395.00
2024-03-20T08:18:38.912Z,96396.00
2024-03-20T08:19:38.817Z,96394.00
2024-03-20T08:20:38.847Z,96394.00
2024-03-20T08:21:38.917Z,96395.00
2024-03-20T08:22:38.829Z,96395.00
2024-03-20T08:23:38.860Z,96392.00
2024-03-20T08:24:38.862Z,96394.00
2024-03-20T08:25:38.918Z,96391.00
2024-03-20T08:26:38.922Z,96391.00
2024-03-20T08:27:39.016Z,96390.00
2024-03-20T08:28:39.106Z,96390.00
2024-03-20T08:29:39.188Z,96390.00
2024-03-20T08:30:39.503Z,96388.00
2024-03-20T08:31:39.410Z,96389.00
2024-03-20T08:32:39.505Z,96389.00
2024-03-20T08:33:39.588Z,96387.00
2024-03-20T08:34:39.689Z,96386.00
2024-03-20T08:35:39.809Z,96386.00
2024-03-20T08:36:39.932Z,96387.00
2024-03-20T08:37:39.986Z,96386.00
2024-03-20T08:38:40.094Z,96386.00
2024-03-20T08:39:40.258Z,96386.00
2024-03-20T08:40:40.294Z,96385.00
2024-03-20T08:41:40.384Z,96384.00
2024-03-20T08:42:40.507Z,96383.00
2024-03-20T08:43:40.598Z,96384.00
2024-03-20T08:44:40.699Z,96385.00
2024-03-20T08:45:40.882Z,96382.00
2024-03-20T08:46:40.869Z,96381.00
2024-03-20T08:47:40.967Z,96384.00
2024-03-20T08:48:41.154Z,96383.00
2024-03-20T08:49:41.150Z,96385.00
2024-03-20T08:50:41.228Z,96384.00
2024-03-20T08:51:41.381Z,96381.00
2024-03-20T08:52:41.430Z,96383.00
2024-03-20T08:53:41.525Z,96381.00
2024-03-20T08:54:41.656Z,96379.00
2024-03-20T08:55:41.716Z,96377.00
2024-03-20T08:56:41.788Z,96376.00
2024-03-20T08:57:41.902Z,96376.00
2024-03-20T08:58:42.008Z,96375.00
2024-03-20T08:59:42.037Z,96375.00
2024-03-20T09:00:42.152Z,96373.00
2024-03-20T09:01:42.169Z,96372.00
2024-03-20T09:02:42.252Z,96370.00
2024-03-20T09:03:42.285Z,96370.00
2024-03-20T09:04:42.354Z,96365.00
2024-03-20T09:05:42.494Z,96364.00
2024-03-20T09:06:42.586Z,96362.00
2024-03-20T09:07:42.519Z,96361.00
2024-03-20T09:08:42.563Z,96357.00
2024-03-20T09:09:42.658Z,96358.00
2024-03-20T09:10:42.726Z,96358.00
2024-03-20T09:11:42.740Z,96355.00
2024-03-20T09:12:42.806Z,96355.00
2024-03-20T09:13:42.900Z,96353.00
2024-03-20T09:14:42.892Z,96354.00
2024-03-20T09:15:43.133Z,96351.00
2024-03-20T09:16:43.022Z,96350.00
2024-03-20T09:17:43.064Z,96349.00
2024-03-20T09:18:43.260Z,96350.00
2024-03-20T09:19:43.219Z,96348.00
2024-03-20T09:20:43.285Z,96349.00
2024-03-20T09:21:43.496Z,96348.00
2024-03-20T09:22:43.394Z,96346.00
2024-03-20T09:23:43.535Z,96347.00
2024-03-20T09:24:43.543Z,96343.00
2024-03-20T09:25:43.590Z,96341.00
2024-03-20T09:26:43.658Z,96342.00
2024-03-20T09:27:43.705Z,96341.00
2024-03-20T09:28:43.765Z,96340.00
2024-03-20T09:29:43.899Z,96337.00
2024-03-20T09:30:43.945Z,96337.00
2024-03-20T09:31:43.947Z,96333.00
2024-03-20T09:32:44.021Z,96332.00
2024-03-20T09:33:44.185Z,96331.00
2024-03-20T09:34:44.190Z,96329.00
2024-03-20T09:35:44.207Z,96327.00
2024-03-20T09:36:44.296Z,96328.00
2024-03-20T09:37:44.368Z,96325.00
2024-03-20T09:38:44.401Z,96325.00
2024-03-20T09:39:44.498Z,96327.00
2024-03-20T09:40:44.598Z,96326.00
2024-03-20T09:41:44.659Z,96324.00
2024-03-20T09:42:44.870Z,96320.00
2024-03-20T09:43:44.834Z,96322.00
2024-03-20T09:44:44.955Z,96321.00
2024-03-20T09:45:44.998Z,96317.00
2024-03-20T09:46:45.087Z,96319.00
2024-03-20T09:47:45.175Z,96319.00
2024-03-20T09:48:45.311Z,96311.00
2024-03-20T09:49:45.373Z,96316.00
2024-03-20T09:50:45.486Z,96308.00
2024-03-20T09:51:45.549Z,96309.00
2024-03-20T09:52:45.621Z,96307.00
2024-03-20T09:53:45.701Z,96304.00
2024-03-20T09:54:45.791Z,96305.00
2024-03-20T09:55:45.848Z,96302.00
2024-03-20T09:56:45.935Z,96302.00
2024-03-20T09:57:46.014Z,96302.00
2024-03-20T09:58:46.080Z,96301.00
2024-03-20T09:59:46.145Z,96299.00
2024-03-20T10:00:46.247Z,96299.00
2024-03-20T10:01:46.312Z,96297.00
2024-03-20T10:02:46.378Z,96294.00
2024-03-20T10:03:46.448Z,96295.00
2024-03-20T10:04:52.774Z,96292.00
2024-03-20T10:05:47.525Z,96290.00
2024-03-20T10:06:46.531Z,96287.00
2024-03-20T10:07:46.520Z,96286.00
2024-03-20T10:08:46.519Z,96284.00
2024-03-20T10:09:46.524Z,96285.00
2024-03-20T10:10:46.530Z,96282.00
2024-03-20T10:11:46.547Z,96282.00
2024-03-20T10:12:46.523Z,96282.00
2024-03-20T10:13:46.526Z,96281.00
2024-03-20T10:14:46.536Z,96279.00
2024-03-20T10:15:46.571Z,96278.00
2024-03-20T10:16:49.661Z,96276.00
2024-03-20T10:17:47.621Z,96273.00
2024-03-20T10:18:46.624Z,96272.00
2024-03-20T10:19:46.617Z,96270.00
2024-03-20T10:20:46.620Z,96270.00
2024-03-20T10:21:46.613Z,96266.00
2024-03-20T10:22:56.460Z,96266.00
2024-03-20T10:23:47.631Z,96263.00
2024-03-20T10:24:46.630Z,96261.00
2024-03-20T10:25:46.646Z,96261.00
2024-03-20T10:26:46.729Z,96261.00
2024-03-20T10:27:46.629Z,96259.00
2024-03-20T10:28:46.625Z,96260.00
2024-03-20T10:29:52.802Z,96259.00
2024-03-20T10:30:47.707Z,96260.00
2024-03-20T10:31:46.789Z,96259.00
2024-03-20T10:32:46.660Z,96256.00
2024-03-20T10:33:46.665Z,96255.00
2024-03-20T10:34:46.734Z,96256.00
2024-03-20T10:35:46.651Z,96254.00
2024-03-20T10:36:46.860Z,96251.00
2024-03-20T10:37:46.660Z,96250.00
2024-03-20T10:38:46.662Z,96248.00
2024-03-20T10:39:46.673Z,96248.00
2024-03-20T10:40:46.712Z,96245.00
2024-03-20T10:41:46.765Z,96245.00
2024-03-20T10:42:46.792Z,96244.00
2024-03-20T10:43:46.859Z,96243.00
2024-03-20T10:44:46.913Z,96242.00
2024-03-20T10:45:47.000Z,96241.00
2024-03-20T10:46:47.010Z,96238.00
2024-03-20T10:47:47.037Z,96236.00
2024-03-20T10:48:47.049Z,96235.00
2024-03-20T10:49:47.078Z,96233.00
2024-03-20T10:50:47.122Z,96233.00
2024-03-20T10:51:47.195Z,96231.00
2024-03-20T10:52:47.277Z,96228.00
2024-03-20T10:53:47.363Z,96234.00
2024-03-20T10:54:47.603Z,96229.00
2024-03-20T10:55:47.524Z,96232.00
2024-03-20T10:56:47.613Z,96231.00
2024-03-20T10:57:47.685Z,96230.00
2024-03-20T10:58:47.734Z,96229.00
2024-03-20T10:59:47.849Z,96229.00
2024-03-20T11:00:47.869Z,96228.00
2024-03-20T11:01:47.978Z,96227.00
2024-03-20T11:02:48.021Z,96225.00
2024-03-20T11:03:48.087Z,96221.00
2024-03-20T11:04:48.147Z,96220.00
2024-03-20T11:05:48.196Z,96218.00
2024-03-20T11:06:48.264Z,96219.00
2024-03-20T11:07:48.314Z,96217.00
2024-03-20T11:08:48.384Z,96217.00
2024-03-20T11:09:48.441Z,96217.00
2024-03-20T11:10:48.517Z,96217.00
2024-03-20T11:11:48.557Z,96215.00
2024-03-20T11:12:48.615Z,96214.00
2024-03-20T11:13:48.776Z,96214.00
2024-03-20T11:14:48.712Z,96210.00
2024-03-20T11:15:49.811Z,96210.00
2024-03-20T11:16:53.941Z,96210.00
2024-03-20T11:17:48.880Z,96205.00
2024-03-20T11:18:48.878Z,96204.00
2024-03-20T11:19:48.946Z,96202.00
2024-03-20T11:20:48.869Z,96201.00
2024-03-20T11:21:48.883Z,96201.00
2024-03-20T11:22:48.905Z,96198.00
2024-03-20T11:23:48.897Z,96195.00
2024-03-20T11:24:48.902Z,96196.00
2024-03-20T11:25:48.907Z,96195.00
2024-03-20T11:26:53.725Z,96194.00
2024-03-20T11:27:48.959Z,96192.00
2024-03-20T11:28:48.934Z,96191.00
2024-03-20T11:29:48.938Z,96190.00
2024-03-20T11:30:48.942Z,96188.00
2024-03-20T11:31:48.948Z,96188.00
2024-03-20T11:32:48.945Z,96185.00
2024-03-20T11:33:48.959Z,96185.00
2024-03-20T11:34:48.937Z,96184.00
2024-03-20T11:35:50.140Z,96180.00
2024-03-20T11:36:48.981Z,96179.00
2024-03-20T11:37:48.995Z,96176.00
2024-03-20T11:38:48.989Z,96174.00
2024-03-20T11:39:48.989Z,96172.00
2024-03-20T11:40:48.975Z,96172.00
2024-03-20T11:41:49.032Z,96173.00
2024-03-20T11:42:49.084Z,96171.00
2024-03-20T11:43:49.177Z,96170.00
2024-03-20T11:44:49.237Z,96167.00
2024-03-20T11:45:49.344Z,96166.00
2024-03-20T11:46:49.426Z,96164.00